< < Back
Terminal Aerodrome Forecast


Current Version              Previous Versions:   1  2  3  4  5  6  7  8  9  

Terminal Aerodrome Forecast

140
FTUS42 KTAE 060528
TAFTLH
TAF
KTLH 060528Z 0606/0706 01005KT P6SM SKC
     FM061500 02006KT P6SM BKN040=

Latest METAR

091
SAUS80 KWBC 062300
MTRTLH
METAR KTLH 062253Z 02007KT 10SM BKN060 BKN250 11/M01 A3019 RMK AO2
SLP222 T01111006


USA.gov is the U.S. government's official web portal to all federal, state and local government web resources and services.